createdAt,value
2022-10-24T00:01:23.053Z,70656.31
2022-10-24T00:03:50.954Z,70611.78
2022-10-24T00:06:19.887Z,70616.81
2022-10-24T00:08:49.098Z,70634.81
2022-10-24T00:11:24.747Z,70605.06
2022-10-24T00:13:54.621Z,70561.72
2022-10-24T00:16:21.952Z,70608.63
2022-10-24T00:18:49.265Z,70601.84
2022-10-24T00:21:16.656Z,70606.00
2022-10-24T00:23:43.928Z,70605.38
2022-10-24T00:26:14.212Z,70589.44
2022-10-24T00:28:41.342Z,70599.47
2022-10-24T00:31:16.272Z,70561.84
2022-10-24T00:33:44.569Z,70552.28
2022-10-24T00:36:18.282Z,70610.31
2022-10-24T00:38:45.551Z,70549.97
2022-10-24T00:41:28.592Z,70574.34
2022-10-24T00:44:20.379Z,70543.41
2022-10-24T00:47:20.738Z,70581.97
2022-10-24T00:50:12.531Z,70608.22
2022-10-24T00:52:46.847Z,70558.06
2022-10-24T00:55:15.643Z,70598.47
2022-10-24T00:57:54.883Z,70580.47
2022-10-24T01:00:31.735Z,70570.69
2022-10-24T01:02:59.562Z,70581.56
2022-10-24T01:05:40.925Z,70599.53
2022-10-24T01:08:46.705Z,70572.97
2022-10-24T01:11:47.088Z,70580.34
2022-10-24T01:14:54.179Z,70568.00
2022-10-24T01:17:59.002Z,70561.81
2022-10-24T01:21:06.002Z,70562.09
2022-10-24T01:24:01.024Z,70598.38
2022-10-24T01:27:06.487Z,70548.50
2022-10-24T01:30:17.813Z,70556.13
2022-10-24T01:33:15.794Z,70549.94
2022-10-24T01:36:12.754Z,70604.78
2022-10-24T01:38:51.975Z,70585.34
2022-10-24T01:41:24.065Z,70597.47
2022-10-24T01:44:07.484Z,70556.22
2022-10-24T01:46:43.623Z,70555.91
2022-10-24T01:49:19.469Z,70589.22
2022-10-24T01:51:53.410Z,70570.41
2022-10-24T01:54:21.822Z,70551.00
2022-10-24T01:56:49.015Z,70602.53
2022-10-24T01:59:28.357Z,70573.34
2022-10-24T02:02:09.790Z,70540.59
2022-10-24T02:04:46.090Z,70536.50
2022-10-24T02:07:16.097Z,70566.88
2022-10-24T02:09:49.969Z,70606.41
2022-10-24T02:12:19.897Z,70545.13
2022-10-24T02:14:57.371Z,70578.97
2022-10-24T02:17:24.832Z,70543.66
2022-10-24T02:19:52.133Z,70587.59
2022-10-24T02:22:45.788Z,70568.66
2022-10-24T02:25:32.075Z,70510.00
2022-10-24T02:28:13.097Z,70569.84
2022-10-24T02:30:50.682Z,70519.69
2022-10-24T02:33:18.907Z,70577.59
2022-10-24T02:35:48.696Z,70534.78
2022-10-24T02:38:27.308Z,70584.59
2022-10-24T02:40:57.649Z,70525.59
2022-10-24T02:43:27.509Z,70553.06
2022-10-24T02:45:58.082Z,70548.00
2022-10-24T02:48:33.466Z,70552.50
2022-10-24T02:51:02.271Z,70556.88
2022-10-24T02:53:29.439Z,70584.59
2022-10-24T02:55:56.522Z,70529.72
2022-10-24T02:58:23.469Z,70567.25
2022-10-24T03:00:51.018Z,70529.84
2022-10-24T03:03:18.411Z,70559.78
2022-10-24T03:05:45.479Z,70580.41
2022-10-24T03:08:12.885Z,70597.00
2022-10-24T03:10:40.342Z,70566.84
2022-10-24T03:13:07.327Z,70574.44
2022-10-24T03:15:34.614Z,70588.53
2022-10-24T03:18:01.614Z,70585.34
2022-10-24T03:20:28.720Z,70634.28
2022-10-24T03:22:55.713Z,70552.88
2022-10-24T03:25:22.752Z,70583.22
2022-10-24T03:27:49.638Z,70603.94
2022-10-24T03:30:16.681Z,70562.59
2022-10-24T03:32:44.162Z,70554.34
2022-10-24T03:35:14.008Z,70585.63
2022-10-24T03:37:41.632Z,70546.13
2022-10-24T03:40:10.699Z,70638.28
2022-10-24T03:42:38.081Z,70540.66
2022-10-24T03:45:05.959Z,70596.22
2022-10-24T03:47:32.936Z,70539.88
2022-10-24T03:49:59.868Z,70546.84
2022-10-24T03:52:26.833Z,70523.94
2022-10-24T03:54:53.780Z,70498.88
2022-10-24T03:59:48.702Z,70535.75
2022-10-24T04:02:15.709Z,70567.88
2022-10-24T04:04:42.649Z,70520.41
2022-10-24T04:07:09.598Z,70494.22
2022-10-24T04:09:36.539Z,70500.41
2022-10-24T04:12:03.840Z,70522.47
2022-10-24T04:14:30.791Z,70550.50
2022-10-24T04:16:57.783Z,70504.78
2022-10-24T04:19:24.709Z,70506.59
2022-10-24T04:21:51.748Z,70531.06
2022-10-24T04:24:19.066Z,70526.69
2022-10-24T04:26:46.028Z,70536.72
2022-10-24T04:29:13.003Z,70524.69
2022-10-24T04:31:39.952Z,70498.69
2022-10-24T04:34:07.098Z,70472.78
2022-10-24T04:36:35.058Z,70484.03
2022-10-24T04:39:02.771Z,70494.91
2022-10-24T04:41:29.961Z,70478.13
2022-10-24T04:43:57.172Z,70511.13
2022-10-24T04:46:24.201Z,70484.41
2022-10-24T04:48:51.269Z,70517.34
2022-10-24T04:51:21.565Z,70508.81
2022-10-24T04:53:50.958Z,70481.69
2022-10-24T04:56:19.043Z,70484.66
2022-10-24T04:58:46.408Z,70468.19
2022-10-24T05:01:13.494Z,70505.88
2022-10-24T05:03:40.732Z,70486.78
2022-10-24T05:06:07.899Z,70472.59
2022-10-24T05:08:34.921Z,70516.78
2022-10-24T05:11:02.286Z,70466.38
2022-10-24T05:13:31.789Z,70520.03
2022-10-24T05:16:02.093Z,70454.72
2022-10-24T05:18:29.162Z,70514.44
2022-10-24T05:21:00.854Z,70448.75
2022-10-24T05:23:28.157Z,70518.25
2022-10-24T05:25:55.142Z,70494.66
2022-10-24T05:28:22.181Z,70501.69
2022-10-24T05:30:49.228Z,70499.66
2022-10-24T05:33:16.185Z,70509.28
2022-10-24T05:35:43.253Z,70526.69
2022-10-24T05:38:10.271Z,70507.31
2022-10-24T05:40:37.324Z,70524.66
2022-10-24T05:43:04.286Z,70526.97
2022-10-24T05:45:31.238Z,70525.81
2022-10-24T05:47:58.325Z,70501.94
2022-10-24T05:50:26.955Z,70550.28
2022-10-24T05:52:54.016Z,70525.53
2022-10-24T05:55:20.927Z,70510.78
2022-10-24T05:57:48.193Z,70551.44
2022-10-24T06:00:17.191Z,70503.97
2022-10-24T06:05:16.795Z,70539.31
2022-10-24T06:07:44.070Z,70508.72
2022-10-24T06:10:12.944Z,70547.84
2022-10-24T06:12:40.439Z,70481.53
2022-10-24T06:15:09.997Z,70532.25
2022-10-24T06:17:37.026Z,70538.06
2022-10-24T06:20:05.293Z,70585.78
2022-10-24T06:22:32.261Z,70584.59
2022-10-24T06:25:00.184Z,70577.47
2022-10-24T06:27:27.701Z,70571.25
2022-10-24T06:29:54.619Z,70608.69
2022-10-24T06:32:21.976Z,70582.06
2022-10-24T06:34:48.997Z,70626.91
2022-10-24T06:37:16.198Z,70649.47
2022-10-24T06:39:43.263Z,70633.19
2022-10-24T06:42:10.512Z,70641.13
2022-10-24T06:44:38.581Z,70685.09
2022-10-24T06:47:06.850Z,70630.75
2022-10-24T06:49:33.926Z,70673.22
2022-10-24T06:52:00.971Z,70670.88
2022-10-24T06:54:30.270Z,70703.31
2022-10-24T06:56:57.778Z,70690.88
2022-10-24T06:59:24.865Z,70697.03
2022-10-24T07:01:52.183Z,70673.66
2022-10-24T07:04:19.608Z,70714.41
2022-10-24T07:06:46.670Z,70691.94
2022-10-24T07:09:15.406Z,70728.22
2022-10-24T07:11:44.141Z,70736.16
2022-10-24T07:14:12.185Z,70772.16
2022-10-24T07:16:39.788Z,70739.38
2022-10-24T07:19:07.911Z,70764.97
2022-10-24T07:21:35.789Z,70781.44
2022-10-24T07:24:03.801Z,70802.66
2022-10-24T07:26:31.196Z,70785.47
2022-10-24T07:31:33.218Z,70827.38
2022-10-24T07:34:03.115Z,70808.88
2022-10-24T07:36:32.971Z,70809.50
2022-10-24T07:39:00.969Z,70843.84
2022-10-24T07:41:31.247Z,70831.69
2022-10-24T07:44:02.104Z,70852.75
2022-10-24T07:46:30.115Z,70862.41
2022-10-24T07:48:57.216Z,70833.13
2022-10-24T07:51:27.953Z,70847.34
2022-10-24T07:53:56.419Z,70883.97
2022-10-24T07:56:23.378Z,70853.75
2022-10-24T07:58:50.483Z,70877.09
2022-10-24T08:01:22.245Z,70877.28
2022-10-24T08:03:49.305Z,70923.41
2022-10-24T08:06:21.609Z,70907.28
2022-10-24T08:08:49.076Z,70907.44
2022-10-24T08:11:21.669Z,70931.25
2022-10-24T08:13:50.592Z,70947.19
2022-10-24T08:16:21.130Z,70966.66
2022-10-24T08:18:50.374Z,70940.94
2022-10-24T08:21:19.473Z,70976.66
2022-10-24T08:23:49.804Z,71000.63
2022-10-24T08:26:21.991Z,71001.81
2022-10-24T08:28:49.319Z,70965.25
2022-10-24T08:31:21.314Z,70968.19
2022-10-24T08:33:52.439Z,71028.31
2022-10-24T08:36:23.875Z,71036.63
2022-10-24T08:38:51.183Z,71006.38
2022-10-24T08:41:41.329Z,71024.00
2022-10-24T08:44:26.383Z,71047.94
2022-10-24T08:47:03.516Z,71084.38
2022-10-24T08:49:51.718Z,71043.31
2022-10-24T08:52:35.390Z,71055.94
2022-10-24T08:55:51.064Z,71055.78
2022-10-24T08:58:23.138Z,71071.09
2022-10-24T09:00:54.190Z,71061.13
2022-10-24T09:03:50.766Z,71119.91
2022-10-24T09:06:20.257Z,71138.50
2022-10-24T09:09:05.475Z,71103.72
2022-10-24T09:11:59.376Z,71130.38
2022-10-24T09:14:36.734Z,71158.28
2022-10-24T09:17:23.623Z,71129.53
2022-10-24T09:20:01.813Z,71131.56
2022-10-24T09:22:35.237Z,71150.53
2022-10-24T09:25:08.874Z,71161.25
2022-10-24T09:27:40.083Z,71135.00
2022-10-24T09:30:17.096Z,71168.22
2022-10-24T09:32:44.441Z,71175.47
2022-10-24T09:35:24.986Z,71139.81
2022-10-24T09:38:17.087Z,71178.28
2022-10-24T09:40:52.140Z,71177.47
2022-10-24T09:43:28.993Z,71202.06
2022-10-24T09:46:06.343Z,71152.69
2022-10-24T09:49:02.766Z,71194.75
2022-10-24T09:52:00.096Z,71201.22
2022-10-24T09:54:31.087Z,71252.72
2022-10-24T09:57:29.441Z,71341.66
2022-10-24T10:00:01.500Z,71334.28
2022-10-24T10:02:34.402Z,71406.03
2022-10-24T10:05:04.338Z,71434.34
2022-10-24T10:07:38.273Z,71495.84
2022-10-24T10:10:05.500Z,71499.28
2022-10-24T10:12:42.425Z,71536.22
2022-10-24T10:15:28.533Z,71502.53
2022-10-24T10:18:00.812Z,71505.03
2022-10-24T10:20:42.680Z,71459.16
2022-10-24T10:23:36.381Z,71459.84
2022-10-24T10:26:16.982Z,71454.47
2022-10-24T10:29:04.496Z,71440.16
2022-10-24T10:31:46.701Z,71481.91
2022-10-24T10:34:39.932Z,71422.44
2022-10-24T10:37:25.643Z,71444.78
2022-10-24T10:40:01.408Z,71455.56
2022-10-24T10:42:52.772Z,71415.72
2022-10-24T10:45:49.628Z,71432.38
2022-10-24T10:48:49.880Z,71429.47
2022-10-24T10:51:44.728Z,71429.19
2022-10-24T10:54:30.122Z,71388.72
2022-10-24T10:57:22.329Z,71412.81
2022-10-24T11:00:09.332Z,71385.09
2022-10-24T11:02:53.820Z,71408.38
2022-10-24T11:05:41.364Z,71487.28
2022-10-24T11:08:39.603Z,71384.91
2022-10-24T11:11:24.668Z,71397.16
2022-10-24T11:14:35.019Z,71375.19
2022-10-24T11:17:36.913Z,71385.88
2022-10-24T11:20:19.761Z,71384.69
2022-10-24T11:23:05.642Z,71368.25
2022-10-24T11:25:44.223Z,71364.50
2022-10-24T11:28:32.882Z,71338.22
2022-10-24T11:31:16.431Z,71336.63
2022-10-24T11:33:54.491Z,71384.53
2022-10-24T11:37:00.572Z,71377.31
2022-10-24T11:39:54.698Z,71390.66
2022-10-24T11:42:47.606Z,71359.03
2022-10-24T11:45:22.971Z,71426.84
2022-10-24T11:48:11.169Z,71421.13
2022-10-24T11:50:48.197Z,71387.63
2022-10-24T11:53:49.602Z,71375.25
2022-10-24T11:56:41.462Z,71363.97
2022-10-24T11:59:18.729Z,71350.56
2022-10-24T12:02:30.580Z,71410.34
2022-10-24T12:06:01.610Z,71322.34
2022-10-24T12:08:46.404Z,71341.75
2022-10-24T12:11:34.943Z,71343.50
2022-10-24T12:14:19.029Z,71313.22
2022-10-24T12:17:45.351Z,71308.78
2022-10-24T12:20:21.166Z,71336.50
2022-10-24T12:22:50.577Z,71365.03
2022-10-24T12:25:35.338Z,71297.59
2022-10-24T12:28:21.119Z,71336.81
2022-10-24T12:31:15.986Z,71274.75
2022-10-24T12:33:44.943Z,71350.41
2022-10-24T12:36:12.551Z,71321.25
2022-10-24T12:38:39.888Z,71308.69
2022-10-24T12:41:34.504Z,71336.69
2022-10-24T12:44:29.963Z,71344.41
2022-10-24T12:46:56.985Z,71339.72
2022-10-24T12:49:33.658Z,71305.94
2022-10-24T12:52:32.522Z,71309.16
2022-10-24T12:55:00.277Z,71286.25
2022-10-24T12:57:36.702Z,71348.38
2022-10-24T13:00:23.710Z,71319.50
2022-10-24T13:03:19.746Z,71258.63
2022-10-24T13:06:07.135Z,71308.84
2022-10-24T13:08:42.896Z,71316.56
2022-10-24T13:11:22.021Z,71332.00
2022-10-24T13:14:08.766Z,71361.06
2022-10-24T13:17:08.577Z,71336.59
2022-10-24T13:19:36.999Z,71380.03
2022-10-24T13:22:04.426Z,71345.50
2022-10-24T13:24:37.764Z,71341.28
2022-10-24T13:27:11.899Z,71415.66
2022-10-24T13:29:41.177Z,71408.47
2022-10-24T13:32:08.104Z,71381.69
2022-10-24T13:34:52.372Z,71355.50
2022-10-24T13:37:32.123Z,71402.00
2022-10-24T13:40:30.590Z,71388.00
2022-10-24T13:43:07.847Z,71369.56
2022-10-24T13:45:57.427Z,71344.94
2022-10-24T13:48:31.487Z,71370.00
2022-10-24T13:51:29.174Z,71379.72
2022-10-24T13:54:14.846Z,71363.94
2022-10-24T13:56:45.216Z,71393.66
2022-10-24T13:59:37.452Z,71359.75
2022-10-24T14:02:14.927Z,71363.03
2022-10-24T14:04:48.109Z,71350.28
2022-10-24T14:07:27.871Z,71348.84
2022-10-24T14:10:16.991Z,71389.31
2022-10-24T14:12:45.047Z,71368.53
2022-10-24T14:15:22.650Z,71327.97
2022-10-24T14:18:08.407Z,71291.38
2022-10-24T14:20:37.797Z,71277.72
2022-10-24T14:23:28.056Z,71250.09
2022-10-24T14:26:04.224Z,71301.25
2022-10-24T14:28:37.949Z,71298.88
2022-10-24T14:31:21.852Z,71289.47
2022-10-24T14:33:52.191Z,71243.75
2022-10-24T14:36:22.971Z,71237.84
2022-10-24T14:38:56.242Z,71231.94
2022-10-24T14:41:51.967Z,71219.53
2022-10-24T14:44:22.086Z,71191.59
2022-10-24T14:47:16.833Z,71227.59
2022-10-24T14:49:43.819Z,71188.09
2022-10-24T14:52:39.025Z,71223.13
2022-10-24T14:55:23.512Z,71210.09
2022-10-24T14:57:53.590Z,71222.94
2022-10-24T15:00:27.300Z,71264.94
2022-10-24T15:02:58.758Z,71246.19
2022-10-24T15:05:40.124Z,71231.63
2022-10-24T15:08:28.693Z,71200.81
2022-10-24T15:11:21.971Z,71230.22
2022-10-24T15:14:05.541Z,71216.53
2022-10-24T15:16:39.770Z,71240.94
2022-10-24T15:19:17.955Z,71223.31
2022-10-24T15:21:47.304Z,71180.91
2022-10-24T15:24:26.623Z,71242.13
2022-10-24T15:27:13.137Z,71263.63
2022-10-24T15:29:40.904Z,71223.97
2022-10-24T15:32:11.403Z,71247.13
2022-10-24T15:34:38.338Z,71183.38
2022-10-24T15:37:07.665Z,71178.72
2022-10-24T15:39:34.904Z,71140.00
2022-10-24T15:44:35.319Z,71144.72
2022-10-24T15:47:02.334Z,71145.38
2022-10-24T15:49:30.855Z,71131.78
2022-10-24T15:52:01.655Z,71144.88
2022-10-24T15:54:29.308Z,71091.78
2022-10-24T15:56:56.437Z,71123.28
2022-10-24T15:59:26.755Z,71117.06
2022-10-24T16:02:01.322Z,71059.41
2022-10-24T16:04:29.075Z,71096.09
2022-10-24T16:06:56.341Z,71109.47
2022-10-24T16:09:27.884Z,71089.00
2022-10-24T16:11:55.516Z,71051.16
2022-10-24T16:14:26.047Z,71074.25
2022-10-24T16:16:54.984Z,71041.78
2022-10-24T16:19:23.357Z,71013.56
2022-10-24T16:21:50.310Z,71046.22
2022-10-24T16:24:18.398Z,71073.94
2022-10-24T16:26:45.361Z,71056.09
2022-10-24T16:29:12.464Z,71058.44
2022-10-24T16:31:39.535Z,71036.25
2022-10-24T16:34:07.412Z,71025.78
2022-10-24T16:36:35.400Z,71059.03
2022-10-24T16:39:03.552Z,71052.44
2022-10-24T16:41:30.590Z,70968.31
2022-10-24T16:43:58.342Z,71005.66
2022-10-24T16:46:27.955Z,70950.41
2022-10-24T16:48:56.108Z,71064.69
2022-10-24T16:51:32.002Z,70982.25
2022-10-24T16:54:01.145Z,70989.44
2022-10-24T16:56:29.068Z,71017.72
2022-10-24T16:58:56.239Z,71039.81
2022-10-24T17:01:23.661Z,71039.56
2022-10-24T17:03:50.865Z,70985.03
2022-10-24T17:06:18.013Z,71015.59
2022-10-24T17:08:45.217Z,70994.28
2022-10-24T17:11:39.389Z,70993.69
2022-10-24T17:13:59.497Z,70967.66
2022-10-24T17:16:26.542Z,71009.09
2022-10-24T17:19:05.584Z,70991.06
2022-10-24T17:21:41.863Z,70973.91
2022-10-24T17:24:12.056Z,70968.03
2022-10-24T17:26:41.178Z,70968.53
2022-10-24T17:29:12.227Z,70946.94
2022-10-24T17:31:39.355Z,70950.84
2022-10-24T17:34:06.705Z,70953.28
2022-10-24T17:36:38.453Z,70909.81
2022-10-24T17:39:11.370Z,70938.66
2022-10-24T17:41:40.769Z,70969.94
2022-10-24T17:44:17.360Z,70952.81
2022-10-24T17:46:45.582Z,70917.41
2022-10-24T17:49:17.830Z,70929.16
2022-10-24T17:51:49.130Z,70901.66
2022-10-24T17:54:16.724Z,70931.59
2022-10-24T17:56:44.294Z,70899.75
2022-10-24T17:59:11.400Z,70882.28
2022-10-24T18:01:38.741Z,70874.91
2022-10-24T18:04:06.158Z,70858.69
2022-10-24T18:06:33.519Z,70879.16
2022-10-24T18:09:00.717Z,70862.28
2022-10-24T18:11:27.777Z,70847.25
2022-10-24T18:13:54.727Z,70844.34
2022-10-24T18:16:22.141Z,70854.75
2022-10-24T18:18:49.568Z,70812.75
2022-10-24T18:21:24.385Z,70803.03
2022-10-24T18:23:53.674Z,70789.75
2022-10-24T18:26:26.868Z,70797.22
2022-10-24T18:28:55.596Z,70806.44
2022-10-24T18:31:28.245Z,70755.94
2022-10-24T18:33:58.143Z,70776.09
2022-10-24T18:36:28.229Z,70732.97
2022-10-24T18:38:57.255Z,70747.78
2022-10-24T18:41:46.571Z,70698.78
2022-10-24T18:44:30.832Z,70717.75
2022-10-24T18:47:02.455Z,70713.63
2022-10-24T18:49:31.801Z,70734.06
2022-10-24T18:52:10.551Z,70677.59
2022-10-24T18:55:02.141Z,70720.91
2022-10-24T18:57:34.617Z,70705.47
2022-10-24T19:00:02.081Z,70669.44
2022-10-24T19:02:32.002Z,70682.47
2022-10-24T19:05:21.669Z,70679.59
2022-10-24T19:07:50.247Z,70666.31
2022-10-24T19:10:25.134Z,70652.13
2022-10-24T19:12:57.391Z,70610.53
2022-10-24T19:15:25.088Z,70628.91
2022-10-24T19:17:52.297Z,70669.06
2022-10-24T19:20:23.876Z,70652.00
2022-10-24T19:22:51.500Z,70683.56
2022-10-24T19:25:19.318Z,70633.69
2022-10-24T19:27:46.441Z,70640.84
2022-10-24T19:30:13.821Z,70588.84
2022-10-24T19:32:40.858Z,70612.50
2022-10-24T19:35:08.175Z,70612.75
2022-10-24T19:37:37.042Z,70617.84
2022-10-24T19:40:05.328Z,70614.59
2022-10-24T19:42:34.627Z,70642.00
2022-10-24T19:45:02.515Z,70611.91
2022-10-24T19:47:29.536Z,70595.94
2022-10-24T19:49:56.511Z,70619.66
2022-10-24T19:52:23.595Z,70613.38
2022-10-24T19:54:50.594Z,70623.13
2022-10-24T19:57:17.812Z,70580.00
2022-10-24T19:59:44.744Z,70602.47
2022-10-24T20:02:12.452Z,70563.22
2022-10-24T20:04:40.151Z,70615.03
2022-10-24T20:07:09.277Z,70591.03
2022-10-24T20:09:37.030Z,70578.69
2022-10-24T20:12:05.019Z,70565.38
2022-10-24T20:14:32.095Z,70578.06
2022-10-24T20:16:59.053Z,70549.19
2022-10-24T20:19:26.351Z,70581.94
2022-10-24T20:21:53.308Z,70551.03
2022-10-24T20:24:20.333Z,70576.13
2022-10-24T20:26:47.338Z,70554.28
2022-10-24T20:29:17.036Z,70553.41
2022-10-24T20:31:47.168Z,70548.69
2022-10-24T20:34:15.266Z,70548.88
2022-10-24T20:36:47.170Z,70525.13
2022-10-24T20:39:16.378Z,70582.38
2022-10-24T20:41:43.822Z,70568.22
2022-10-24T20:44:12.002Z,70548.75
2022-10-24T20:46:39.694Z,70532.03
2022-10-24T20:49:06.769Z,70499.09
2022-10-24T20:51:33.973Z,70510.50
2022-10-24T20:54:00.890Z,70503.75
2022-10-24T20:56:28.037Z,70513.19
2022-10-24T20:58:56.175Z,70464.50
2022-10-24T21:01:26.439Z,70527.41
2022-10-24T21:03:55.144Z,70515.06
2022-10-24T21:06:33.832Z,70402.69
2022-10-24T21:11:36.494Z,70499.47
2022-10-24T21:14:10.739Z,70482.06
2022-10-24T21:16:38.415Z,70497.97
2022-10-24T21:19:05.837Z,70485.88
2022-10-24T21:21:33.680Z,70489.13
2022-10-24T21:24:05.929Z,70467.31
2022-10-24T21:26:35.062Z,70507.75
2022-10-24T21:29:14.896Z,70481.50
2022-10-24T21:31:50.460Z,70512.50
2022-10-24T21:34:18.676Z,70456.78
2022-10-24T21:36:46.163Z,70470.97
2022-10-24T21:39:15.416Z,70503.09
2022-10-24T21:41:43.636Z,70487.19
2022-10-24T21:44:11.320Z,70478.06
2022-10-24T21:46:38.626Z,70440.31
2022-10-24T21:49:05.932Z,70502.81
2022-10-24T21:51:35.629Z,70513.09
2022-10-24T21:54:14.345Z,70493.91
2022-10-24T21:56:41.742Z,70495.13
2022-10-24T21:59:12.878Z,70477.13
2022-10-24T22:01:41.649Z,70480.41
2022-10-24T22:04:10.439Z,70469.19
2022-10-24T22:06:38.193Z,70463.31
2022-10-24T22:09:07.551Z,70457.16
2022-10-24T22:11:36.365Z,70507.56
2022-10-24T22:14:04.864Z,70475.75
2022-10-24T22:16:33.356Z,70481.66
2022-10-24T22:19:03.024Z,70439.25
2022-10-24T22:21:30.413Z,70468.78
2022-10-24T22:23:59.421Z,70390.13
2022-10-24T22:26:28.735Z,70427.88
2022-10-24T22:28:56.280Z,70434.69
2022-10-24T22:31:25.967Z,70408.75
2022-10-24T22:33:54.398Z,70427.63
2022-10-24T22:36:58.950Z,70397.31
2022-10-24T22:39:27.650Z,70399.09
2022-10-24T22:41:55.322Z,70368.59
2022-10-24T22:44:23.405Z,70371.53
2022-10-24T22:47:34.644Z,70400.72
2022-10-24T22:50:29.016Z,70390.69
2022-10-24T22:52:56.453Z,70368.88
2022-10-24T22:55:36.230Z,70400.97
2022-10-24T22:58:05.706Z,70408.03
2022-10-24T23:00:33.171Z,70382.09
2022-10-24T23:03:17.253Z,70391.81
2022-10-24T23:06:04.241Z,70375.03
2022-10-24T23:08:40.155Z,70390.09
2022-10-24T23:11:11.251Z,70377.63
2022-10-24T23:13:40.470Z,70399.22
2022-10-24T23:16:29.916Z,70418.69
2022-10-24T23:18:57.487Z,70408.41
2022-10-24T23:21:36.951Z,70464.91
2022-10-24T23:24:08.916Z,70476.72
2022-10-24T23:27:11.893Z,70439.88
2022-10-24T23:29:43.515Z,70424.03
2022-10-24T23:32:29.516Z,70430.59
2022-10-24T23:34:58.661Z,70460.66
2022-10-24T23:37:41.100Z,70392.97
2022-10-24T23:40:17.192Z,70381.53
2022-10-24T23:42:49.729Z,70373.06
2022-10-24T23:45:24.195Z,70391.88
2022-10-24T23:48:12.934Z,70382.47
2022-10-24T23:51:15.566Z,70360.13
2022-10-24T23:53:55.371Z,70353.66
2022-10-24T23:56:25.617Z,70375.50
2022-10-24T23:58:53.509Z,70353.69
